createdAt,value
2023-01-11T00:02:07.565Z,100018.25
2023-01-11T00:04:34.644Z,100029.19
2023-01-11T00:07:01.615Z,100024.50
2023-01-11T00:09:28.545Z,100024.09
2023-01-11T00:11:55.531Z,100039.09
2023-01-11T00:14:22.630Z,100043.94
2023-01-11T00:16:49.607Z,100042.31
2023-01-11T00:19:16.484Z,100044.94
2023-01-11T00:21:43.416Z,100047.97
2023-01-11T00:24:10.337Z,100051.78
2023-01-11T00:26:37.344Z,100054.41
2023-01-11T00:29:04.228Z,100063.81
2023-01-11T00:31:31.220Z,100073.16
2023-01-11T00:33:58.288Z,100082.53
2023-01-11T00:36:26.594Z,100085.81
2023-01-11T00:38:54.740Z,100080.34
2023-01-11T00:41:32.670Z,100078.09
2023-01-11T00:44:08.511Z,100090.25
2023-01-11T00:46:44.645Z,100084.38
2023-01-11T00:49:11.698Z,100090.81
2023-01-11T00:51:38.583Z,100101.38
2023-01-11T00:54:05.615Z,100103.84
2023-01-11T00:56:32.644Z,100092.06
2023-01-11T00:58:59.712Z,100094.94
2023-01-11T01:01:26.658Z,100098.38
2023-01-11T01:03:53.761Z,100097.91
2023-01-11T01:06:20.830Z,100101.59
2023-01-11T01:08:47.725Z,100097.56
2023-01-11T01:11:15.035Z,100091.28
2023-01-11T01:13:51.584Z,100102.84
2023-01-11T01:16:19.911Z,100103.41
2023-01-11T01:18:46.901Z,100101.13
2023-01-11T01:21:13.765Z,100104.97
2023-01-11T01:23:40.817Z,100107.78
2023-01-11T01:26:07.797Z,100114.41
2023-01-11T01:28:37.245Z,100118.63
2023-01-11T01:31:04.335Z,100119.59
2023-01-11T01:33:31.214Z,100130.72
2023-01-11T01:35:58.277Z,100130.44
2023-01-11T01:38:25.220Z,100138.09
2023-01-11T01:40:52.724Z,100147.53
2023-01-11T01:43:19.704Z,100149.91
2023-01-11T01:45:50.342Z,100159.34
2023-01-11T01:48:19.119Z,100166.00
2023-01-11T01:50:48.894Z,100163.25
2023-01-11T01:53:20.335Z,100171.81
2023-01-11T01:55:51.054Z,100161.44
2023-01-11T01:58:19.846Z,100162.78
2023-01-11T02:00:47.126Z,100172.88
2023-01-11T02:03:19.608Z,100181.97
2023-01-11T02:05:47.810Z,100185.41
2023-01-11T02:08:18.283Z,100190.06
2023-01-11T02:10:45.405Z,100195.50
2023-01-11T02:13:14.892Z,100200.97
2023-01-11T02:15:41.934Z,100212.84
2023-01-11T02:18:12.135Z,100209.13
2023-01-11T02:20:48.581Z,100220.66
2023-01-11T02:23:17.132Z,100226.56
2023-01-11T02:25:53.791Z,100219.66
2023-01-11T02:28:30.663Z,100225.09
2023-01-11T02:30:58.986Z,100232.00
2023-01-11T02:33:26.007Z,100233.00
2023-01-11T02:36:02.732Z,100231.19
2023-01-11T02:38:33.934Z,100235.19
2023-01-11T02:41:01.196Z,100234.53
2023-01-11T02:43:42.576Z,100233.06
2023-01-11T02:46:15.829Z,100241.81
2023-01-11T02:48:50.096Z,100240.31
2023-01-11T02:51:20.493Z,100244.78
2023-01-11T02:53:51.835Z,100242.34
2023-01-11T02:56:21.819Z,100252.22
2023-01-11T02:58:50.734Z,100255.34
2023-01-11T03:01:19.307Z,100258.16
2023-01-11T03:03:46.417Z,100269.38
2023-01-11T03:06:15.898Z,100266.94
2023-01-11T03:08:52.696Z,100274.66
2023-01-11T03:11:36.378Z,100280.13
2023-01-11T03:14:04.462Z,100275.81
2023-01-11T03:16:40.552Z,100281.09
2023-01-11T03:19:10.573Z,100280.44
2023-01-11T03:21:38.599Z,100285.06
2023-01-11T03:24:14.542Z,100286.72
2023-01-11T03:26:49.979Z,100278.81
2023-01-11T03:29:18.046Z,100284.09
2023-01-11T03:31:48.987Z,100280.13
2023-01-11T03:34:19.958Z,100280.31
2023-01-11T03:36:47.037Z,100282.13
2023-01-11T03:39:13.961Z,100287.94
2023-01-11T03:41:42.056Z,100292.38
2023-01-11T03:44:10.408Z,100293.34
2023-01-11T03:46:39.300Z,100299.63
2023-01-11T03:49:09.330Z,100301.63
2023-01-11T03:51:40.774Z,100300.28
2023-01-11T03:54:09.329Z,100311.84
2023-01-11T03:56:40.043Z,100306.91
2023-01-11T03:59:06.925Z,100308.91
2023-01-11T04:01:33.665Z,100320.59
2023-01-11T04:04:00.488Z,100314.50
2023-01-11T04:06:27.382Z,100326.19
2023-01-11T04:08:54.243Z,100326.53
2023-01-11T04:11:21.041Z,100334.63
2023-01-11T04:13:47.780Z,100326.53
2023-01-11T04:16:14.616Z,100321.44
2023-01-11T04:18:41.417Z,100328.22
2023-01-11T04:21:08.177Z,100334.78
2023-01-11T04:23:34.966Z,100336.63
2023-01-11T04:26:01.719Z,100333.16
2023-01-11T04:28:28.435Z,100346.47
2023-01-11T04:30:55.224Z,100341.22
2023-01-11T04:33:21.946Z,100351.91
2023-01-11T04:35:50.230Z,100345.81
2023-01-11T04:38:17.035Z,100351.28
2023-01-11T04:40:43.752Z,100347.97
2023-01-11T04:43:10.521Z,100349.94
2023-01-11T04:45:37.330Z,100361.63
2023-01-11T04:48:04.489Z,100361.47
2023-01-11T04:50:31.337Z,100363.28
2023-01-11T04:52:59.205Z,100363.44
2023-01-11T04:55:26.022Z,100368.03
2023-01-11T04:57:52.769Z,100373.50
2023-01-11T05:00:19.846Z,100371.19
2023-01-11T05:02:46.586Z,100369.38
2023-01-11T05:05:13.346Z,100370.53
2023-01-11T05:07:41.123Z,100372.50
2023-01-11T05:10:08.251Z,100369.88
2023-01-11T05:12:35.145Z,100368.22
2023-01-11T05:15:01.917Z,100371.19
2023-01-11T05:17:28.717Z,100372.53
2023-01-11T05:19:55.437Z,100371.38
2023-01-11T05:22:22.217Z,100385.66
2023-01-11T05:24:49.006Z,100388.47
2023-01-11T05:27:15.711Z,100394.88
2023-01-11T05:29:44.407Z,100393.41
2023-01-11T05:32:12.460Z,100396.53
2023-01-11T05:34:39.282Z,100401.13
2023-01-11T05:37:06.143Z,100402.25
2023-01-11T05:39:32.968Z,100406.41
2023-01-11T05:41:59.722Z,100407.53
2023-01-11T05:44:36.418Z,100404.56
2023-01-11T05:47:04.494Z,100404.75
2023-01-11T05:49:31.434Z,100417.56
2023-01-11T05:51:58.182Z,100410.31
2023-01-11T05:54:24.958Z,100415.09
2023-01-11T05:56:51.760Z,100400.28
2023-01-11T05:59:18.520Z,100408.34
2023-01-11T06:01:45.501Z,100422.16
2023-01-11T06:04:12.301Z,100418.88
2023-01-11T06:06:39.158Z,100426.09
2023-01-11T06:09:05.912Z,100439.91
2023-01-11T06:11:32.651Z,100439.25
2023-01-11T06:13:59.550Z,100457.81
2023-01-11T06:16:26.423Z,100457.16
2023-01-11T06:18:53.900Z,100464.72
2023-01-11T06:21:22.195Z,100460.56
2023-01-11T06:23:52.017Z,100461.25
2023-01-11T06:26:20.814Z,100448.75
2023-01-11T06:28:48.678Z,100458.97
2023-01-11T06:31:17.668Z,100458.97
2023-01-11T06:33:46.202Z,100454.69
2023-01-11T06:36:13.895Z,100464.22
2023-01-11T06:38:42.582Z,100463.06
2023-01-11T06:41:11.183Z,100464.72
2023-01-11T06:43:42.469Z,100464.91
2023-01-11T06:46:11.987Z,100462.44
2023-01-11T06:48:39.166Z,100458.81
2023-01-11T06:51:06.391Z,100465.38
2023-01-11T06:53:33.256Z,100464.72
2023-01-11T06:56:00.324Z,100474.59
2023-01-11T06:58:28.053Z,100468.34
2023-01-11T07:00:57.373Z,100481.16
2023-01-11T07:03:25.824Z,100485.41
2023-01-11T07:05:53.767Z,100484.44
2023-01-11T07:08:20.779Z,100484.28
2023-01-11T07:10:48.312Z,100490.69
2023-01-11T07:13:17.697Z,100485.06
2023-01-11T07:15:46.105Z,100482.44
2023-01-11T07:18:13.100Z,100482.63
2023-01-11T07:20:40.952Z,100488.88
2023-01-11T07:23:08.174Z,100493.44
2023-01-11T07:25:38.490Z,100499.53
2023-01-11T07:28:12.856Z,100504.66
2023-01-11T07:30:57.535Z,100503.97
2023-01-11T07:33:27.126Z,100507.91
2023-01-11T07:35:55.199Z,100519.41
2023-01-11T07:38:30.293Z,100514.47
2023-01-11T07:40:57.958Z,100514.13
2023-01-11T07:43:29.346Z,100508.19
2023-01-11T07:45:59.238Z,100513.59
2023-01-11T07:48:27.357Z,100514.41
2023-01-11T07:50:56.720Z,100520.50
2023-01-11T07:53:26.578Z,100532.38
2023-01-11T07:56:00.531Z,100531.53
2023-01-11T07:58:36.134Z,100519.38
2023-01-11T08:01:04.297Z,100520.50
2023-01-11T08:03:32.548Z,100515.25
2023-01-11T08:06:07.412Z,100513.28
2023-01-11T08:08:35.573Z,100522.66
2023-01-11T08:11:13.188Z,100515.78
2023-01-11T08:13:59.756Z,100527.13
2023-01-11T08:16:30.170Z,100531.38
2023-01-11T08:18:59.044Z,100531.38
2023-01-11T08:21:25.679Z,100540.63
2023-01-11T08:24:02.060Z,100540.63
2023-01-11T08:26:28.718Z,100543.75
2023-01-11T08:29:02.423Z,100552.94
2023-01-11T08:31:39.737Z,100548.53
2023-01-11T08:34:11.383Z,100556.56
2023-01-11T08:36:46.571Z,100565.59
2023-01-11T08:39:32.498Z,100566.56
2023-01-11T08:44:56.410Z,100581.31
2023-01-11T08:47:24.227Z,100583.94
2023-01-11T08:49:52.380Z,100589.22
2023-01-11T08:52:26.768Z,100589.56
2023-01-11T08:54:53.780Z,100593.69
2023-01-11T08:57:31.972Z,100597.97
2023-01-11T08:59:58.890Z,100598.97
2023-01-11T09:02:25.863Z,100602.56
2023-01-11T09:04:52.556Z,100600.75
2023-01-11T09:07:22.083Z,100602.25
2023-01-11T09:09:48.759Z,100600.28
2023-01-11T09:12:17.703Z,100601.78
2023-01-11T09:14:48.054Z,100607.34
2023-01-11T09:17:18.602Z,100603.75
2023-01-11T09:19:50.016Z,100599.31
2023-01-11T09:22:19.463Z,100597.97
2023-01-11T09:24:46.450Z,100596.84
2023-01-11T09:27:17.745Z,100604.09
2023-01-11T09:29:47.502Z,100597.72
2023-01-11T09:32:14.234Z,100594.44
2023-01-11T09:34:43.976Z,100595.78
2023-01-11T09:37:15.877Z,100616.34
2023-01-11T09:40:01.965Z,100610.63
2023-01-11T09:42:42.244Z,100617.53
2023-01-11T09:45:11.899Z,100625.44
2023-01-11T09:47:51.280Z,100613.41
2023-01-11T09:50:37.309Z,100610.50
2023-01-11T09:53:14.055Z,100610.34
2023-01-11T09:55:42.626Z,100610.84
2023-01-11T09:58:23.202Z,100619.38
2023-01-11T10:00:56.121Z,100632.09
2023-01-11T10:03:23.752Z,100634.53
2023-01-11T10:05:56.906Z,100635.22
2023-01-11T10:18:30.859Z,100630.16
2023-01-11T10:18:40.003Z,100637.84
2023-01-11T10:20:43.059Z,100628.00
2023-01-11T10:23:32.087Z,100635.41
2023-01-11T10:26:16.949Z,100641.84
2023-01-11T10:29:07.554Z,100636.25
2023-01-11T10:31:50.535Z,100641.38
2023-01-11T10:34:43.205Z,100637.22
2023-01-11T10:37:25.779Z,100641.38
2023-01-11T10:40:50.078Z,100636.59
2023-01-11T10:43:25.757Z,100643.53
2023-01-11T10:45:54.553Z,100638.09
2023-01-11T10:48:33.916Z,100633.66
2023-01-11T10:51:01.808Z,100635.81
2023-01-11T10:53:32.755Z,100624.94
2023-01-11T10:56:09.864Z,100619.81
2023-01-11T10:58:38.935Z,100617.03
2023-01-11T11:01:12.988Z,100621.66
2023-01-11T11:04:05.670Z,100621.31
2023-01-11T11:06:52.503Z,100609.97
2023-01-11T11:10:00.991Z,100603.06
2023-01-11T11:12:32.104Z,100601.75
2023-01-11T11:14:58.738Z,100621.69
2023-01-11T11:17:26.207Z,100633.53
2023-01-11T11:19:53.599Z,100639.81
2023-01-11T11:22:21.406Z,100641.31
2023-01-11T11:24:52.472Z,100647.06
2023-01-11T11:27:19.616Z,100637.03
2023-01-11T11:29:51.599Z,100639.34
2023-01-11T11:32:23.612Z,100635.53
2023-01-11T11:34:53.208Z,100643.31
2023-01-11T11:37:21.914Z,100650.03
2023-01-11T11:39:50.553Z,100644.59
2023-01-11T11:42:18.317Z,100648.72
2023-01-11T11:44:45.215Z,100647.91
2023-01-11T11:47:15.497Z,100644.78
2023-01-11T11:49:42.641Z,100640.16
2023-01-11T11:52:13.844Z,100630.44
2023-01-11T11:54:47.421Z,100626.66
2023-01-11T11:57:15.664Z,100628.78
2023-01-11T11:59:47.721Z,100617.09
2023-01-11T12:02:22.318Z,100630.28
2023-01-11T12:04:50.107Z,100616.75
2023-01-11T12:07:23.848Z,100596.63
2023-01-11T12:09:57.224Z,100606.84
2023-01-11T12:12:26.901Z,100607.34
2023-01-11T12:15:05.723Z,100593.28
2023-01-11T12:17:32.633Z,100590.16
2023-01-11T12:19:59.449Z,100583.06
2023-01-11T12:22:28.506Z,100576.63
2023-01-11T12:25:04.682Z,100579.91
2023-01-11T12:27:40.742Z,100582.84
2023-01-11T12:30:08.885Z,100569.66
2023-01-11T12:32:36.088Z,100565.00
2023-01-11T12:35:12.762Z,100562.16
2023-01-11T12:37:48.572Z,100550.97
2023-01-11T12:40:15.850Z,100554.44
2023-01-11T12:42:50.743Z,100544.88
2023-01-11T12:45:26.759Z,100548.13
2023-01-11T12:48:02.827Z,100540.88
2023-01-11T12:50:41.760Z,100531.78
2023-01-11T12:53:17.695Z,100536.25
2023-01-11T12:55:51.089Z,100536.25
2023-01-11T12:58:25.381Z,100523.22
2023-01-11T13:00:59.623Z,100530.47
2023-01-11T13:03:33.693Z,100521.75
2023-01-11T13:06:08.649Z,100520.28
2023-01-11T13:08:44.843Z,100524.28
2023-01-11T13:11:35.558Z,100521.13
2023-01-11T13:14:11.782Z,100501.28
2023-01-11T13:16:43.853Z,100502.44
2023-01-11T13:19:19.424Z,100505.28
2023-01-11T13:21:53.530Z,100496.53
2023-01-11T13:24:26.621Z,100510.34
2023-01-11T13:26:58.649Z,100504.09
2023-01-11T13:29:34.861Z,100496.66
2023-01-11T13:32:03.998Z,100507.84
2023-01-11T13:34:35.858Z,100489.38
2023-01-11T13:37:08.277Z,100496.84
2023-01-11T13:39:41.630Z,100504.09
2023-01-11T13:42:13.889Z,100498.81
2023-01-11T13:44:46.069Z,100496.38
2023-01-11T13:47:18.232Z,100490.44
2023-01-11T13:49:45.972Z,100490.59
2023-01-11T13:52:15.649Z,100481.84
2023-01-11T13:54:51.727Z,100499.50
2023-01-11T13:57:26.095Z,100496.22
2023-01-11T13:59:55.647Z,100502.19
2023-01-11T14:02:31.774Z,100504.00
2023-01-11T14:04:59.931Z,100497.59
2023-01-11T14:07:36.452Z,100500.44
2023-01-11T14:10:12.791Z,100516.91
2023-01-11T14:12:48.902Z,100497.78
2023-01-11T14:15:27.010Z,100491.03
2023-01-11T14:18:06.141Z,100495.69
2023-01-11T14:20:38.583Z,100477.75
2023-01-11T14:23:12.767Z,100472.16
2023-01-11T14:25:48.841Z,100468.72
2023-01-11T14:28:25.699Z,100462.78
2023-01-11T14:31:01.617Z,100471.03
2023-01-11T14:33:37.731Z,100472.22
2023-01-11T14:36:13.628Z,100487.53
2023-01-11T14:38:51.661Z,100480.13
2023-01-11T14:41:27.653Z,100472.91
2023-01-11T14:44:00.173Z,100471.28
2023-01-11T14:46:34.273Z,100456.78
2023-01-11T14:49:10.744Z,100458.78
2023-01-11T14:51:45.046Z,100447.09
2023-01-11T14:54:15.401Z,100457.16
2023-01-11T14:56:42.618Z,100429.97
2023-01-11T14:59:29.318Z,100435.25
2023-01-11T15:02:03.556Z,100443.63
2023-01-11T15:04:38.513Z,100445.91
2023-01-11T15:07:14.578Z,100442.66
2023-01-11T15:09:44.139Z,100437.03
2023-01-11T15:12:12.117Z,100435.56
2023-01-11T15:14:38.989Z,100431.66
2023-01-11T15:17:15.452Z,100420.28
2023-01-11T15:19:43.740Z,100423.91
2023-01-11T15:22:22.974Z,100429.50
2023-01-11T15:24:56.162Z,100425.75
2023-01-11T15:27:25.446Z,100427.41
2023-01-11T15:29:56.776Z,100438.91
2023-01-11T15:32:23.794Z,100407.81
2023-01-11T15:34:50.882Z,100439.09
2023-01-11T15:37:27.611Z,100450.47
2023-01-11T15:40:14.291Z,100455.75
2023-01-11T15:42:54.610Z,100457.56
2023-01-11T15:45:21.710Z,100458.03
2023-01-11T15:47:49.706Z,100460.84
2023-01-11T15:50:29.918Z,100459.34
2023-01-11T15:53:06.775Z,100458.84
2023-01-11T15:55:36.858Z,100461.97
2023-01-11T15:58:15.815Z,100468.06
2023-01-11T16:00:50.007Z,100460.16
2023-01-11T16:03:25.949Z,100447.81
2023-01-11T16:06:02.749Z,100436.91
2023-01-11T16:08:34.713Z,100428.38
2023-01-11T16:11:08.096Z,100430.69
2023-01-11T16:13:45.043Z,100441.72
2023-01-11T16:16:18.024Z,100448.97
2023-01-11T16:18:47.379Z,100438.28
2023-01-11T16:21:20.025Z,100434.19
2023-01-11T16:23:47.379Z,100425.78
2023-01-11T16:26:17.164Z,100430.88
2023-01-11T16:28:48.130Z,100415.25
2023-01-11T16:31:15.076Z,100415.75
2023-01-11T16:33:41.939Z,100408.53
2023-01-11T16:36:16.053Z,100407.06
2023-01-11T16:38:46.068Z,100398.84
2023-01-11T16:41:14.842Z,100394.22
2023-01-11T16:43:48.289Z,100396.34
2023-01-11T16:46:24.783Z,100388.13
2023-01-11T16:49:08.608Z,100386.00
2023-01-11T16:51:35.752Z,100386.00
2023-01-11T16:54:03.143Z,100392.09
2023-01-11T16:56:31.198Z,100393.41
2023-01-11T16:59:07.275Z,100387.47
2023-01-11T17:01:49.095Z,100385.19
2023-01-11T17:04:26.699Z,100395.53
2023-01-11T17:06:53.785Z,100398.50
2023-01-11T17:09:21.624Z,100401.97
2023-01-11T17:11:50.650Z,100383.53
2023-01-11T17:14:20.763Z,100388.97
2023-01-11T17:16:49.829Z,100367.91
2023-01-11T17:19:18.275Z,100377.59
2023-01-11T17:21:50.115Z,100366.09
2023-01-11T17:24:18.380Z,100367.09
2023-01-11T17:26:48.977Z,100363.97
2023-01-11T17:29:18.496Z,100356.22
2023-01-11T17:31:45.410Z,100364.31
2023-01-11T17:34:17.086Z,100369.56
2023-01-11T17:36:44.399Z,100369.38
2023-01-11T17:39:17.119Z,100356.09
2023-01-11T17:41:53.762Z,100362.00
2023-01-11T17:44:31.954Z,100364.94
2023-01-11T17:46:59.398Z,100369.91
2023-01-11T17:49:29.988Z,100370.06
2023-01-11T17:51:58.038Z,100368.75
2023-01-11T17:54:26.798Z,100386.66
2023-01-11T17:56:56.656Z,100386.34
2023-01-11T17:59:24.704Z,100375.63
2023-01-11T18:01:54.626Z,100387.16
2023-01-11T18:04:22.585Z,100388.63
2023-01-11T18:06:50.838Z,100383.84
2023-01-11T18:09:19.154Z,100372.34
2023-01-11T18:11:47.153Z,100386.19
2023-01-11T18:14:18.879Z,100374.84
2023-01-11T18:16:56.368Z,100381.41
2023-01-11T18:19:25.045Z,100369.69
2023-01-11T18:21:53.492Z,100375.63
2023-01-11T18:24:22.544Z,100374.31
2023-01-11T18:26:50.594Z,100374.63
2023-01-11T18:32:05.998Z,100374.31
2023-01-11T18:34:33.222Z,100370.38
2023-01-11T18:37:00.944Z,100381.53
2023-01-11T18:39:27.815Z,100370.69
2023-01-11T18:42:04.609Z,100378.44
2023-01-11T18:44:33.679Z,100389.28
2023-01-11T18:47:00.637Z,100391.22
2023-01-11T18:49:27.534Z,100404.69
2023-01-11T18:51:54.494Z,100402.38
2023-01-11T18:54:21.509Z,100401.88
2023-01-11T18:56:48.417Z,100403.22
2023-01-11T18:59:15.374Z,100414.22
2023-01-11T19:01:54.389Z,100413.25
2023-01-11T19:04:25.836Z,100412.56
2023-01-11T19:06:52.755Z,100416.19
2023-01-11T19:09:19.729Z,100416.19
2023-01-11T19:11:46.622Z,100411.75
2023-01-11T19:14:13.492Z,100420.78
2023-01-11T19:16:40.343Z,100407.63
2023-01-11T19:19:07.213Z,100410.25
2023-01-11T19:21:34.737Z,100414.53
2023-01-11T19:24:01.914Z,100417.50
2023-01-11T19:26:28.924Z,100429.69
2023-01-11T19:28:55.832Z,100426.53
2023-01-11T19:31:22.713Z,100436.44
2023-01-11T19:33:49.732Z,100422.28
2023-01-11T19:36:16.553Z,100424.91
2023-01-11T19:38:43.339Z,100429.16
2023-01-11T19:41:10.815Z,100435.09
2023-01-11T19:43:44.972Z,100447.78
2023-01-11T19:46:14.998Z,100449.44
2023-01-11T19:48:43.993Z,100457.16
2023-01-11T19:51:11.925Z,100462.25
2023-01-11T19:53:38.821Z,100454.19
2023-01-11T19:56:07.189Z,100463.75
2023-01-11T19:58:36.436Z,100457.13
2023-01-11T20:01:09.198Z,100456.16
2023-01-11T20:03:36.093Z,100465.72
2023-01-11T20:06:04.876Z,100463.72
2023-01-11T20:08:31.692Z,100464.25
2023-01-11T20:11:03.966Z,100454.66
2023-01-11T20:13:30.805Z,100455.47
2023-01-11T20:15:57.651Z,100454.34
2023-01-11T20:18:24.551Z,100458.63
2023-01-11T20:20:54.982Z,100449.72
2023-01-11T20:23:22.118Z,100442.66
2023-01-11T20:25:49.020Z,100440.53
2023-01-11T20:30:42.760Z,100430.94
2023-01-11T20:33:10.414Z,100429.13
2023-01-11T20:35:38.093Z,100429.78
2023-01-11T20:38:04.929Z,100429.47
2023-01-11T20:40:31.972Z,100427.47
2023-01-11T20:42:59.189Z,100421.22
2023-01-11T20:45:29.394Z,100416.28
2023-01-11T20:47:56.314Z,100416.09
2023-01-11T20:50:23.102Z,100409.69
2023-01-11T20:52:50.122Z,100406.06
2023-01-11T20:55:17.072Z,100398.78
2023-01-11T20:57:45.460Z,100413.78
2023-01-11T21:02:38.404Z,100411.78
2023-01-11T21:05:05.654Z,100406.38
2023-01-11T21:07:32.822Z,100399.59
2023-01-11T21:09:59.587Z,100401.59
2023-01-11T21:12:26.640Z,100398.78
2023-01-11T21:14:53.488Z,100390.88
2023-01-11T21:17:20.418Z,100388.44
2023-01-11T21:19:47.669Z,100382.84
2023-01-11T21:22:14.498Z,100384.81
2023-01-11T21:24:41.445Z,100383.00
2023-01-11T21:27:08.469Z,100376.75
2023-01-11T21:29:35.465Z,100377.56
2023-01-11T21:32:02.371Z,100371.28
2023-01-11T21:34:29.334Z,100356.13
2023-01-11T21:36:56.267Z,100352.34
2023-01-11T21:39:23.094Z,100360.06
2023-01-11T21:44:34.229Z,100354.16
2023-01-11T21:47:01.956Z,100367.28
2023-01-11T21:49:28.731Z,100369.75
2023-01-11T21:51:55.527Z,100362.31
2023-01-11T21:54:22.345Z,100369.06
2023-01-11T21:56:49.535Z,100360.16
2023-01-11T21:59:16.648Z,100362.25
2023-01-11T22:01:46.577Z,100356.00
2023-01-11T22:04:14.786Z,100351.22
2023-01-11T22:06:43.143Z,100351.03
2023-01-11T22:09:11.180Z,100345.56
2023-01-11T22:11:38.125Z,100335.03
2023-01-11T22:14:06.838Z,100335.69
2023-01-11T22:16:34.090Z,100314.41
2023-01-11T22:19:01.563Z,100310.59
2023-01-11T22:21:29.424Z,100308.59
2023-01-11T22:23:57.337Z,100326.22
2023-01-11T22:26:24.838Z,100298.88
2023-01-11T22:29:03.375Z,100295.22
2023-01-11T22:31:30.661Z,100295.22
2023-01-11T22:33:58.082Z,100288.97
2023-01-11T22:36:25.396Z,100272.97
2023-01-11T22:38:52.665Z,100270.13
2023-01-11T22:41:19.731Z,100269.31
2023-01-11T22:43:46.986Z,100262.88
2023-01-11T22:46:15.025Z,100255.78
2023-01-11T22:48:41.837Z,100246.06
2023-01-11T22:51:09.823Z,100245.53
2023-01-11T22:53:37.604Z,100235.59
2023-01-11T22:56:05.037Z,100242.19
2023-01-11T22:58:31.725Z,100235.06
2023-01-11T23:00:58.687Z,100232.41
2023-01-11T23:03:26.841Z,100230.44
2023-01-11T23:05:53.583Z,100221.84
2023-01-11T23:08:20.343Z,100220.69
2023-01-11T23:10:47.062Z,100209.31
2023-01-11T23:13:23.507Z,100206.69
2023-01-11T23:15:52.044Z,100195.13
2023-01-11T23:18:18.856Z,100198.41
2023-01-11T23:20:46.034Z,100180.75
2023-01-11T23:23:12.797Z,100171.66
2023-01-11T23:25:39.565Z,100175.94
2023-01-11T23:28:06.323Z,100181.66
2023-01-11T23:30:33.053Z,100170.28
2023-01-11T23:32:59.843Z,100168.66
2023-01-11T23:35:26.577Z,100153.47
2023-01-11T23:37:54.457Z,100151.81
2023-01-11T23:40:21.182Z,100140.28
2023-01-11T23:42:47.987Z,100142.75
2023-01-11T23:45:14.818Z,100135.44
2023-01-11T23:47:41.562Z,100125.72
2023-01-11T23:50:08.802Z,100114.34
2023-01-11T23:52:35.730Z,100098.50
2023-01-11T23:55:02.484Z,100093.03
2023-01-11T23:57:29.291Z,100075.31
2023-01-11T23:59:56.092Z,100073.66
